Grange, Georgia
Current Conditions -  °F | °C
As of 11:15 AM on Saturday 22 Nov 2014 (Local Time) from KOKZ Reporting Station
Scattered Clouds Scattered Clouds  
Wind Chill: 55°   Ceiling: Unl
Heat Index: 55°   Visibility: 10mi
Dew Point: 27°   Wind: 8mph
Humidity: 34%   Direction: 100°E
Pressure: 30.49"   Gusts: NA
Location:  33.028°N, 82.379°W
Report Text: KOKZ 221615Z AUTO 10007KT 10SM SCT065 13/M03 A3049 RMK AO2 T01251029
Loading
Personal Weather Stations






























Interactive Weather Map New forecast layout! Learn more

10-Day Weather Forecast

Advertisements
Track Severe Weather on mobile